createdAt,value
2018-11-22T00:00:38.760Z,77.32
2018-11-22T00:01:38.783Z,77.52
2018-11-22T00:02:38.951Z,77.25
2018-11-22T00:03:38.993Z,77.37
2018-11-22T00:04:38.829Z,77.27
2018-11-22T00:05:38.924Z,77.31
2018-11-22T00:06:38.975Z,77.46
2018-11-22T00:07:38.736Z,77.57
2018-11-22T00:08:40.121Z,77.58
2018-11-22T00:09:38.819Z,77.5
2018-11-22T00:10:38.736Z,77.28
2018-11-22T00:11:38.747Z,77.62
2018-11-22T00:12:38.744Z,77.58
2018-11-22T00:13:39.181Z,77.41
2018-11-22T00:14:38.705Z,77.51
2018-11-22T00:15:38.746Z,77.5
2018-11-22T00:16:38.723Z,77.41
2018-11-22T00:17:38.761Z,77.44
2018-11-22T00:18:38.945Z,77.44
2018-11-22T00:19:38.841Z,77.5
2018-11-22T00:20:38.762Z,77.48
2018-11-22T00:21:38.716Z,77.64
2018-11-22T00:22:38.750Z,77.82
2018-11-22T00:23:38.719Z,78
2018-11-22T00:24:39.047Z,77.62
2018-11-22T00:25:38.784Z,77.67
2018-11-22T00:26:38.737Z,77.84
2018-11-22T00:27:38.730Z,77.64
2018-11-22T00:28:38.692Z,77.66
2018-11-22T00:29:38.761Z,78.05
2018-11-22T00:30:38.778Z,77.75
2018-11-22T00:31:38.885Z,77.99
2018-11-22T00:32:38.715Z,77.75
2018-11-22T00:33:38.913Z,77.71
2018-11-22T00:34:38.755Z,77.87
2018-11-22T00:35:38.969Z,77.65
2018-11-22T00:36:38.840Z,77.65
2018-11-22T00:37:38.746Z,77.91
2018-11-22T00:38:38.752Z,77.68
2018-11-22T00:39:39.005Z,77.74
2018-11-22T00:40:38.932Z,77.57
2018-11-22T00:41:38.950Z,77.67
2018-11-22T00:42:38.907Z,77.41
2018-11-22T00:43:38.887Z,77.4
2018-11-22T00:44:38.692Z,77.65
2018-11-22T00:45:39.160Z,77.56
2018-11-22T00:46:38.811Z,77.45
2018-11-22T00:47:38.683Z,77.22
2018-11-22T00:48:38.953Z,77.42
2018-11-22T00:49:38.706Z,77.26
2018-11-22T00:50:39.166Z,77.27
2018-11-22T00:51:39.429Z,77.06
2018-11-22T00:52:39.007Z,77.15
2018-11-22T00:53:38.922Z,77.24
2018-11-22T00:54:38.682Z,77.34
2018-11-22T00:55:38.897Z,77.15
2018-11-22T00:56:38.669Z,77.36
2018-11-22T00:57:38.992Z,77.17
2018-11-22T00:58:38.819Z,77.25
2018-11-22T00:59:38.745Z,77.37
2018-11-22T01:00:38.945Z,77.27
2018-11-22T01:01:38.775Z,77.32
2018-11-22T01:02:38.685Z,77.23
2018-11-22T01:03:38.728Z,77.16
2018-11-22T01:04:38.733Z,76.96
2018-11-22T01:05:38.736Z,77.03
2018-11-22T01:06:38.731Z,77.01
2018-11-22T01:07:38.682Z,76.89
2018-11-22T01:08:38.725Z,76.87
2018-11-22T01:09:38.917Z,76.87
2018-11-22T01:10:38.615Z,76.87
2018-11-22T01:11:38.913Z,76.85
2018-11-22T01:12:38.984Z,76.8
2018-11-22T01:13:39.009Z,76.84
2018-11-22T01:14:38.877Z,76.55
2018-11-22T01:15:38.979Z,76.47
2018-11-22T01:16:38.783Z,76.32
2018-11-22T01:17:38.664Z,76.45
2018-11-22T01:18:38.628Z,76.32
2018-11-22T01:19:38.705Z,76.47
2018-11-22T01:20:38.608Z,76.29
2018-11-22T01:21:38.806Z,76.42
2018-11-22T01:22:38.889Z,76.46
2018-11-22T01:23:38.802Z,76.33
2018-11-22T01:24:38.641Z,76.62
2018-11-22T01:25:38.943Z,76.73
2018-11-22T01:26:38.948Z,76.63
2018-11-22T01:27:39.043Z,76.83
2018-11-22T01:28:38.668Z,76.66
2018-11-22T01:29:38.800Z,76.73
2018-11-22T01:30:38.631Z,76.77
2018-11-22T01:31:38.657Z,76.97
2018-11-22T01:32:38.931Z,76.8
2018-11-22T01:33:38.979Z,76.86
2018-11-22T01:34:38.902Z,76.93
2018-11-22T01:35:38.670Z,76.96
2018-11-22T01:36:38.910Z,76.93
2018-11-22T01:37:38.864Z,76.89
2018-11-22T01:38:38.622Z,76.58
2018-11-22T01:39:39.018Z,76.6
2018-11-22T01:40:38.888Z,76.73
2018-11-22T01:41:38.624Z,76.45
2018-11-22T01:42:39.046Z,76.78
2018-11-22T01:43:38.608Z,76.64
2018-11-22T01:44:38.616Z,76.76
2018-11-22T01:45:38.721Z,76.72
2018-11-22T01:46:38.602Z,76.87
2018-11-22T01:47:38.604Z,77.41
2018-11-22T01:48:38.763Z,77.4
2018-11-22T01:49:38.595Z,77.38
2018-11-22T01:50:38.653Z,77.17
2018-11-22T01:51:38.711Z,77.06
2018-11-22T01:52:38.662Z,77.22
2018-11-22T01:53:38.642Z,77.27
2018-11-22T01:54:38.716Z,77.21
2018-11-22T01:55:38.685Z,77.16
2018-11-22T01:56:38.597Z,77.12
2018-11-22T01:57:38.683Z,77.48
2018-11-22T01:58:38.605Z,77.14
2018-11-22T01:59:38.647Z,77.29
2018-11-22T02:00:38.624Z,77.42
2018-11-22T02:01:38.644Z,76.97
2018-11-22T02:02:38.694Z,77.21
2018-11-22T02:03:39.007Z,77.28
2018-11-22T02:04:38.872Z,77.1
2018-11-22T02:05:38.945Z,77.02
2018-11-22T02:06:38.612Z,77.25
2018-11-22T02:07:38.798Z,76.93
2018-11-22T02:08:38.704Z,77.02
2018-11-22T02:09:38.567Z,77.2
2018-11-22T02:10:38.643Z,76.93
2018-11-22T02:11:38.580Z,77.08
2018-11-22T02:12:38.987Z,76.71
2018-11-22T02:13:38.569Z,76.76
2018-11-22T02:14:38.586Z,76.85
2018-11-22T02:15:38.863Z,76.72
2018-11-22T02:16:38.575Z,76.61
2018-11-22T02:17:38.725Z,76.67
2018-11-22T02:18:39.002Z,76.71
2018-11-22T02:19:38.558Z,76.79
2018-11-22T02:20:38.625Z,76.88
2018-11-22T02:21:38.588Z,76.5
2018-11-22T02:22:38.955Z,76.66
2018-11-22T02:23:38.711Z,76.51
2018-11-22T02:24:38.922Z,76.62
2018-11-22T02:25:38.547Z,76.45
2018-11-22T02:26:38.530Z,76.25
2018-11-22T02:27:38.716Z,76.18
2018-11-22T02:28:38.612Z,76.36
2018-11-22T02:29:38.654Z,76.4
2018-11-22T02:30:38.817Z,76.48
2018-11-22T02:31:38.891Z,76.38
2018-11-22T02:32:38.517Z,76.55
2018-11-22T02:33:38.570Z,76.56
2018-11-22T02:34:39.046Z,76.53
2018-11-22T02:35:39.258Z,76.46
2018-11-22T02:36:38.592Z,76.41
2018-11-22T02:37:38.541Z,76.27
2018-11-22T02:38:38.664Z,76.32
2018-11-22T02:39:38.682Z,76.29
2018-11-22T02:40:38.593Z,76.47
2018-11-22T02:41:38.652Z,76.33
2018-11-22T02:42:38.681Z,76.21
2018-11-22T02:43:38.556Z,76.33
2018-11-22T02:44:38.572Z,76.31
2018-11-22T02:45:38.587Z,76.27
2018-11-22T02:46:38.565Z,76.24
2018-11-22T02:47:38.697Z,76.27
2018-11-22T02:48:38.520Z,76.37
2018-11-22T02:49:38.897Z,76.29
2018-11-22T02:50:38.596Z,76.26
2018-11-22T02:51:38.909Z,76.26
2018-11-22T02:52:38.592Z,76.34
2018-11-22T02:53:38.670Z,76.2
2018-11-22T02:54:38.674Z,76.08
2018-11-22T02:55:38.590Z,76.04
2018-11-22T02:56:38.566Z,76.22
2018-11-22T02:57:38.675Z,76.28
2018-11-22T02:58:38.609Z,76.27
2018-11-22T02:59:38.528Z,76.12
2018-11-22T03:00:38.768Z,76.1
2018-11-22T03:01:38.973Z,76.13
2018-11-22T03:02:38.566Z,76.24
2018-11-22T03:03:38.741Z,76.24
2018-11-22T03:04:38.940Z,76.19
2018-11-22T03:05:38.497Z,76.19
2018-11-22T03:06:38.733Z,76.11
2018-11-22T03:07:38.509Z,76.22
2018-11-22T03:08:38.617Z,76.22
2018-11-22T03:09:38.578Z,76.33
2018-11-22T03:10:38.600Z,76.07
2018-11-22T03:11:38.523Z,76.38
2018-11-22T03:12:39.088Z,76.15
2018-11-22T03:13:38.555Z,76.24
2018-11-22T03:14:38.553Z,76.2
2018-11-22T03:15:38.509Z,76.17
2018-11-22T03:16:38.537Z,76.09
2018-11-22T03:17:38.506Z,75.9
2018-11-22T03:18:38.492Z,75.99
2018-11-22T03:19:38.815Z,76.27
2018-11-22T03:20:38.528Z,76.15
2018-11-22T03:21:38.500Z,76.24
2018-11-22T03:22:38.485Z,76.22
2018-11-22T03:23:38.520Z,76.22
2018-11-22T03:24:38.507Z,76.26
2018-11-22T03:25:38.464Z,76.36
2018-11-22T03:26:38.475Z,76.35
2018-11-22T03:27:38.473Z,76.12
2018-11-22T03:28:38.477Z,76.2
2018-11-22T03:29:38.515Z,76.03
2018-11-22T03:30:38.526Z,76.09
2018-11-22T03:31:38.734Z,76.22
2018-11-22T03:32:38.471Z,75.81
2018-11-22T03:33:38.623Z,75.99
2018-11-22T03:34:38.492Z,75.95
2018-11-22T03:35:38.463Z,75.99
2018-11-22T03:36:38.621Z,75.91
2018-11-22T03:37:38.496Z,75.96
2018-11-22T03:38:38.551Z,76.16
2018-11-22T03:39:38.668Z,75.89
2018-11-22T03:40:38.470Z,76.06
2018-11-22T03:41:38.524Z,75.91
2018-11-22T03:42:38.481Z,75.97
2018-11-22T03:43:38.474Z,75.91
2018-11-22T03:44:38.565Z,76.07
2018-11-22T03:45:38.570Z,75.96
2018-11-22T03:46:38.470Z,75.93
2018-11-22T03:47:38.549Z,75.95
2018-11-22T03:48:39.053Z,75.86
2018-11-22T03:49:39.031Z,75.74
2018-11-22T03:50:38.740Z,76
2018-11-22T03:51:38.477Z,75.91
2018-11-22T03:52:38.454Z,76.01
2018-11-22T03:53:38.533Z,75.98
2018-11-22T03:54:38.840Z,76.28
2018-11-22T03:55:38.442Z,76.11
2018-11-22T03:56:38.645Z,76.2
2018-11-22T03:57:38.510Z,76.13
2018-11-22T03:58:38.580Z,76.18
2018-11-22T03:59:38.552Z,76.05
2018-11-22T04:00:38.604Z,76.01
2018-11-22T04:01:38.445Z,76.16
2018-11-22T04:02:38.627Z,76.43
2018-11-22T04:03:38.555Z,76.41
2018-11-22T04:04:38.846Z,76.57
2018-11-22T04:05:38.438Z,76.42
2018-11-22T04:06:38.450Z,76.32
2018-11-22T04:07:38.432Z,76.24
2018-11-22T04:08:38.681Z,76.21
2018-11-22T04:09:38.438Z,76.47
2018-11-22T04:10:38.634Z,76.16
2018-11-22T04:11:38.620Z,76.09
2018-11-22T04:12:39.253Z,76.25
2018-11-22T04:13:38.591Z,76.23
2018-11-22T04:14:38.479Z,75.96
2018-11-22T04:15:38.438Z,76.16
2018-11-22T04:16:38.577Z,76.13
2018-11-22T04:17:38.383Z,76.2
2018-11-22T04:18:38.552Z,76.38
2018-11-22T04:19:38.575Z,76.27
2018-11-22T04:20:38.415Z,76.37
2018-11-22T04:21:38.727Z,76.4
2018-11-22T04:22:38.510Z,76.24
2018-11-22T04:23:38.463Z,76.41
2018-11-22T04:24:38.507Z,76.24
2018-11-22T04:25:38.409Z,76.14
2018-11-22T04:26:39.053Z,76.31
2018-11-22T04:27:38.412Z,76.17
2018-11-22T04:28:38.417Z,76.33
2018-11-22T04:29:38.768Z,75.98
2018-11-22T04:30:38.607Z,76.22
2018-11-22T04:31:38.365Z,76.36
2018-11-22T04:32:38.488Z,76.18
2018-11-22T04:33:38.419Z,76.34
2018-11-22T04:34:38.423Z,76.09
2018-11-22T04:35:38.416Z,76.17
2018-11-22T04:36:38.413Z,76.29
2018-11-22T04:37:38.365Z,75.95
2018-11-22T04:38:38.427Z,76.08
2018-11-22T04:39:38.455Z,76.17
2018-11-22T04:40:38.871Z,75.94
2018-11-22T04:41:38.468Z,76.15
2018-11-22T04:42:38.377Z,76.04
2018-11-22T04:43:38.393Z,76.03
2018-11-22T04:44:38.376Z,75.82
2018-11-22T04:45:38.866Z,75.91
2018-11-22T04:46:38.434Z,75.94
2018-11-22T04:47:38.368Z,75.77
2018-11-22T04:48:38.356Z,75.87
2018-11-22T04:49:38.482Z,75.7
2018-11-22T04:50:38.407Z,75.66
2018-11-22T04:51:38.421Z,75.67
2018-11-22T04:52:38.390Z,75.67
2018-11-22T04:53:38.446Z,75.66
2018-11-22T04:54:38.341Z,75.79
2018-11-22T04:55:38.369Z,75.5
2018-11-22T04:56:38.356Z,75.42
2018-11-22T04:57:38.373Z,75.51
2018-11-22T04:58:38.376Z,75.59
2018-11-22T04:59:38.336Z,75.67
2018-11-22T05:00:38.486Z,75.74
2018-11-22T05:01:38.333Z,75.73
2018-11-22T05:02:38.425Z,75.58
2018-11-22T05:03:39.039Z,75.42
2018-11-22T05:04:38.588Z,75.44
2018-11-22T05:05:38.434Z,75.27
2018-11-22T05:06:38.583Z,75.53
2018-11-22T05:07:38.310Z,75.63
2018-11-22T05:08:38.386Z,75.54
2018-11-22T05:09:38.460Z,75.35
2018-11-22T05:10:38.532Z,75.49
2018-11-22T05:11:38.327Z,75.69
2018-11-22T05:12:38.478Z,75.72
2018-11-22T05:13:38.489Z,75.38
2018-11-22T05:14:38.325Z,75.5
2018-11-22T05:15:39.133Z,75.54
2018-11-22T05:16:38.526Z,75.57
2018-11-22T05:17:38.321Z,75.71
2018-11-22T05:18:38.418Z,75.73
2018-11-22T05:19:38.419Z,75.9
2018-11-22T05:20:38.631Z,76.07
2018-11-22T05:21:38.328Z,75.99
2018-11-22T05:22:38.521Z,75.86
2018-11-22T05:23:38.453Z,75.79
2018-11-22T05:24:38.348Z,75.92
2018-11-22T05:25:38.323Z,76.09
2018-11-22T05:26:38.480Z,75.84
2018-11-22T05:27:38.322Z,75.97
2018-11-22T05:28:38.327Z,76
2018-11-22T05:29:38.328Z,76.05
2018-11-22T05:30:39.568Z,76.06
2018-11-22T05:31:38.361Z,75.8
2018-11-22T05:32:38.438Z,75.91
2018-11-22T05:33:38.415Z,76.16
2018-11-22T05:34:38.330Z,76.09
2018-11-22T05:35:38.396Z,76.14
2018-11-22T05:36:38.515Z,76.03
2018-11-22T05:37:38.450Z,76.08
2018-11-22T05:38:38.393Z,75.98
2018-11-22T05:39:38.641Z,76.04
2018-11-22T05:40:38.383Z,76.14
2018-11-22T05:41:38.442Z,76.11
2018-11-22T05:42:38.273Z,76.26
2018-11-22T05:43:38.317Z,76.32
2018-11-22T05:44:38.388Z,76.11
2018-11-22T05:45:38.497Z,76.03
2018-11-22T05:46:38.508Z,76.12
2018-11-22T05:47:38.309Z,76.36
2018-11-22T05:48:38.434Z,76.05
2018-11-22T05:49:38.424Z,76.21
2018-11-22T05:50:38.647Z,76.21
2018-11-22T05:51:38.306Z,76.23
2018-11-22T05:52:38.289Z,76.27
2018-11-22T05:53:38.449Z,76.29
2018-11-22T05:54:38.423Z,76.35
2018-11-22T05:55:38.634Z,76.38
2018-11-22T05:56:38.425Z,76.42
2018-11-22T05:57:38.907Z,76.57
2018-11-22T05:58:38.383Z,76.44
2018-11-22T05:59:38.506Z,76.58
2018-11-22T06:00:38.465Z,76.67
2018-11-22T06:01:38.338Z,76.29
2018-11-22T06:02:38.261Z,76.44
2018-11-22T06:03:38.369Z,76.31
2018-11-22T06:04:38.358Z,76.76
2018-11-22T06:05:38.381Z,76.43
2018-11-22T06:06:38.337Z,76.46
2018-11-22T06:07:38.405Z,76.6
2018-11-22T06:08:38.659Z,76.67
2018-11-22T06:09:38.263Z,76.63
2018-11-22T06:10:38.430Z,76.75
2018-11-22T06:11:38.303Z,76.67
2018-11-22T06:12:38.352Z,76.63
2018-11-22T06:13:38.250Z,76.57
2018-11-22T06:14:38.237Z,76.64
2018-11-22T06:15:38.322Z,76.4
2018-11-22T06:16:38.333Z,76.49
2018-11-22T06:17:38.228Z,76.62
2018-11-22T06:18:38.313Z,76.56
2018-11-22T06:19:38.253Z,76.61
2018-11-22T06:20:38.216Z,76.92
2018-11-22T06:21:38.246Z,76.9
2018-11-22T06:22:38.389Z,76.89
2018-11-22T06:23:38.237Z,76.69
2018-11-22T06:24:38.217Z,77.03
2018-11-22T06:25:38.226Z,77.04
2018-11-22T06:26:38.286Z,77.11
2018-11-22T06:27:38.496Z,77.44
2018-11-22T06:28:38.245Z,77.52
2018-11-22T06:29:38.293Z,77.41
2018-11-22T06:30:38.632Z,77.15
2018-11-22T06:31:38.243Z,77.35
2018-11-22T06:32:38.219Z,77.47
2018-11-22T06:33:38.219Z,77.23
2018-11-22T06:34:38.364Z,77.15
2018-11-22T06:35:38.235Z,76.95
2018-11-22T06:36:38.238Z,77.16
2018-11-22T06:37:38.532Z,77.15
2018-11-22T06:38:38.253Z,77.26
2018-11-22T06:39:38.355Z,77.33
2018-11-22T06:40:38.484Z,77.22
2018-11-22T06:41:38.395Z,77.37
2018-11-22T06:42:38.286Z,77.56
2018-11-22T06:43:38.422Z,77.12
2018-11-22T06:44:38.295Z,77.02
2018-11-22T06:45:38.409Z,77.35
2018-11-22T06:46:38.213Z,77.27
2018-11-22T06:47:38.280Z,77.45
2018-11-22T06:48:38.369Z,77.55
2018-11-22T06:49:38.240Z,77.26
2018-11-22T06:50:38.398Z,77.42
2018-11-22T06:51:38.232Z,77.38
2018-11-22T06:52:38.441Z,77.46
2018-11-22T06:53:38.216Z,77.27
2018-11-22T06:54:38.353Z,77.17
2018-11-22T06:55:38.213Z,77.43
2018-11-22T06:56:38.342Z,77.12
2018-11-22T06:57:38.265Z,77.5
2018-11-22T06:58:38.219Z,77.2
2018-11-22T06:59:38.292Z,77.41
2018-11-22T07:00:38.302Z,77.44
2018-11-22T07:01:38.275Z,77.66
2018-11-22T07:02:38.402Z,77.6
2018-11-22T07:03:38.657Z,77.46
2018-11-22T07:04:38.319Z,77.41
2018-11-22T07:05:38.244Z,77.32
2018-11-22T07:06:38.333Z,77.14
2018-11-22T07:07:38.310Z,77.28
2018-11-22T07:08:38.262Z,77.49
2018-11-22T07:09:38.222Z,77.28
2018-11-22T07:10:38.614Z,76.97
2018-11-22T07:11:38.296Z,77.27
2018-11-22T07:12:38.387Z,77.12
2018-11-22T07:13:38.354Z,76.91
2018-11-22T07:14:38.980Z,76.92
2018-11-22T07:15:38.190Z,77.11
2018-11-22T07:16:38.300Z,77.15
2018-11-22T07:17:38.282Z,76.9
2018-11-22T07:18:38.617Z,77.35
2018-11-22T07:19:38.257Z,77.17
2018-11-22T07:20:38.452Z,77.13
2018-11-22T07:21:38.281Z,77.35
2018-11-22T07:22:38.185Z,77.3
2018-11-22T07:23:38.177Z,77.23
2018-11-22T07:24:38.232Z,77.72
2018-11-22T07:25:38.156Z,77.29
2018-11-22T07:26:38.378Z,77.29
2018-11-22T07:27:38.381Z,77.54
2018-11-22T07:28:38.164Z,77.32
2018-11-22T07:29:38.157Z,77.41
2018-11-22T07:30:42.353Z,77.51
2018-11-22T07:31:38.122Z,77.41
2018-11-22T07:32:38.444Z,77.41
2018-11-22T07:33:38.664Z,77.22
2018-11-22T07:34:38.429Z,77.54
2018-11-22T07:35:38.276Z,77.59
2018-11-22T07:36:38.305Z,77.62
2018-11-22T07:37:38.698Z,77.4
2018-11-22T07:38:38.173Z,77.34
2018-11-22T07:39:38.323Z,77.4
2018-11-22T07:40:38.229Z,77.42
2018-11-22T07:41:38.168Z,77.51
2018-11-22T07:42:38.400Z,77.62
2018-11-22T07:43:38.645Z,77.77
2018-11-22T07:44:38.188Z,77.84
2018-11-22T07:45:38.122Z,77.69
2018-11-22T07:46:38.103Z,77.74
2018-11-22T07:47:38.139Z,77.77
2018-11-22T07:48:38.140Z,77.78
2018-11-22T07:49:38.148Z,77.83
2018-11-22T07:50:38.111Z,77.56
2018-11-22T07:51:38.099Z,77.65
2018-11-22T07:52:38.104Z,77.94
2018-11-22T07:53:38.111Z,78.16
2018-11-22T07:54:38.144Z,77.95
2018-11-22T07:55:38.109Z,77.83
2018-11-22T07:56:38.119Z,77.89
2018-11-22T07:57:38.118Z,77.88
2018-11-22T07:58:38.299Z,77.79
2018-11-22T07:59:38.411Z,77.64
2018-11-22T08:00:38.100Z,77.78
2018-11-22T08:01:38.146Z,77.93
2018-11-22T08:02:38.106Z,77.81
2018-11-22T08:03:38.081Z,77.7
2018-11-22T08:04:38.113Z,77.67
2018-11-22T08:05:38.125Z,77.83
2018-11-22T08:06:38.165Z,77.81
2018-11-22T08:07:38.280Z,77.7
2018-11-22T08:08:38.131Z,77.63
2018-11-22T08:09:38.199Z,77.68
2018-11-22T08:10:38.130Z,77.9
2018-11-22T08:11:38.169Z,77.8
2018-11-22T08:12:38.269Z,78.09
2018-11-22T08:13:38.163Z,77.85
2018-11-22T08:14:38.423Z,77.77
2018-11-22T08:15:38.907Z,77.75
2018-11-22T08:16:38.275Z,77.66
2018-11-22T08:17:38.164Z,77.73
2018-11-22T08:18:38.125Z,77.58
2018-11-22T08:19:38.063Z,77.54
2018-11-22T08:20:38.099Z,77.33
2018-11-22T08:21:38.359Z,77.36
2018-11-22T08:22:38.213Z,77.64
2018-11-22T08:23:38.078Z,77.51
2018-11-22T08:24:38.284Z,77.38
2018-11-22T08:25:38.183Z,77.35
2018-11-22T08:26:38.890Z,77.32
2018-11-22T08:27:38.172Z,77.52
2018-11-22T08:28:38.124Z,77.49
2018-11-22T08:29:38.178Z,77.21
2018-11-22T08:30:38.169Z,77.05
2018-11-22T08:31:38.157Z,76.99
2018-11-22T08:32:38.084Z,76.95
2018-11-22T08:33:38.149Z,77.11
2018-11-22T08:34:38.577Z,76.95
2018-11-22T08:35:38.186Z,76.87
2018-11-22T08:36:38.123Z,76.83
2018-11-22T08:37:38.060Z,76.65
2018-11-22T08:38:38.118Z,76.82
2018-11-22T08:39:38.066Z,76.72
2018-11-22T08:40:38.068Z,76.76
2018-11-22T08:41:38.144Z,76.81
2018-11-22T08:42:38.347Z,76.74
2018-11-22T08:43:38.082Z,76.65
2018-11-22T08:44:38.233Z,76.73
2018-11-22T08:45:38.095Z,76.72
2018-11-22T08:46:38.047Z,76.62
2018-11-22T08:47:38.225Z,76.73
2018-11-22T08:48:38.154Z,76.77
2018-11-22T08:49:38.158Z,76.81
2018-11-22T08:50:38.129Z,76.97
2018-11-22T08:51:38.068Z,76.87
2018-11-22T08:52:38.233Z,76.85
2018-11-22T08:53:38.079Z,76.71
2018-11-22T08:54:38.187Z,76.82
2018-11-22T08:55:38.094Z,76.93
2018-11-22T08:56:38.224Z,76.86
2018-11-22T08:57:38.149Z,76.79
2018-11-22T08:58:38.205Z,76.75
2018-11-22T08:59:38.336Z,76.87
2018-11-22T09:00:38.182Z,76.7
2018-11-22T09:01:38.380Z,76.75
2018-11-22T09:02:38.387Z,76.9
2018-11-22T09:03:38.148Z,76.67
2018-11-22T09:04:38.108Z,76.8
2018-11-22T09:05:38.075Z,76.7
2018-11-22T09:06:38.216Z,76.55
2018-11-22T09:07:38.226Z,76.52
2018-11-22T09:08:38.334Z,76.65
2018-11-22T09:09:38.135Z,76.51
2018-11-22T09:10:38.153Z,76.47
2018-11-22T09:11:38.089Z,76.55
2018-11-22T09:12:38.083Z,76.65
2018-11-22T09:13:38.196Z,76.52
2018-11-22T09:14:38.074Z,76.42
2018-11-22T09:15:38.066Z,76.21
2018-11-22T09:16:38.023Z,76.15
2018-11-22T09:17:38.024Z,76.13
2018-11-22T09:18:38.102Z,76.02
2018-11-22T09:19:38.201Z,76
2018-11-22T09:20:38.046Z,75.84
2018-11-22T09:21:38.035Z,75.95
2018-11-22T09:22:38.133Z,75.88
2018-11-22T09:23:38.509Z,75.58
2018-11-22T09:24:38.988Z,75.61
2018-11-22T09:25:38.014Z,75.76
2018-11-22T09:26:38.062Z,75.85
2018-11-22T09:27:38.056Z,75.94
2018-11-22T09:28:38.080Z,75.94
2018-11-22T09:29:39.528Z,75.72
2018-11-22T09:30:38.373Z,75.69
2018-11-22T09:31:38.022Z,75.57
2018-11-22T09:32:38.031Z,75.42
2018-11-22T09:33:38.048Z,75.5
2018-11-22T09:34:38.210Z,75.41
2018-11-22T09:35:38.013Z,75.22
2018-11-22T09:36:37.962Z,75.22
2018-11-22T09:37:38.046Z,75.37
2018-11-22T09:38:38.209Z,75.29
2018-11-22T09:39:38.012Z,75.11
2018-11-22T09:40:38.240Z,75.12
2018-11-22T09:41:38.065Z,75.33
2018-11-22T09:42:38.065Z,75.14
2018-11-22T09:43:38.136Z,75.35
2018-11-22T09:44:38.144Z,75.2
2018-11-22T09:45:38.175Z,75.16
2018-11-22T09:46:38.113Z,75.27
2018-11-22T09:47:38.169Z,75.16
2018-11-22T09:48:38.036Z,75.3
2018-11-22T09:49:37.992Z,75.3
2018-11-22T09:50:38.207Z,75.11
2018-11-22T09:51:38.166Z,75.16
2018-11-22T09:52:38.087Z,75.13
2018-11-22T09:53:38.161Z,75.1
2018-11-22T09:54:38.090Z,74.68
2018-11-22T09:55:38.091Z,74.97
2018-11-22T09:56:38.074Z,74.85
2018-11-22T09:57:37.977Z,74.55
2018-11-22T09:58:38.219Z,74.54
2018-11-22T09:59:38.071Z,74.51
2018-11-22T10:00:38.087Z,74.34
2018-11-22T10:01:37.966Z,74.34
2018-11-22T10:02:38.088Z,74.39
2018-11-22T10:03:37.947Z,74.31
2018-11-22T10:04:38.097Z,74.22
2018-11-22T10:05:38.048Z,74.31
2018-11-22T10:06:38.009Z,74.36
2018-11-22T10:07:38.009Z,74.06
2018-11-22T10:08:37.961Z,74.24
2018-11-22T10:09:38.147Z,74.05
2018-11-22T10:10:38.079Z,74.1
2018-11-22T10:11:37.967Z,74.07
2018-11-22T10:12:38.181Z,74.18
2018-11-22T10:13:38.016Z,73.99
2018-11-22T10:14:37.938Z,73.72
2018-11-22T10:15:38.035Z,73.9
2018-11-22T10:16:38.121Z,74.04
2018-11-22T10:17:38.188Z,73.96
2018-11-22T10:18:38.139Z,74.15
2018-11-22T10:19:38.046Z,73.74
2018-11-22T10:20:38.169Z,73.42
2018-11-22T10:21:38.028Z,73.5
2018-11-22T10:22:38.281Z,73.54
2018-11-22T10:23:38.109Z,73.55
2018-11-22T10:24:38.074Z,73.55
2018-11-22T10:25:38.079Z,73.25
2018-11-22T10:26:38.275Z,73.3
2018-11-22T10:27:37.913Z,73.43
2018-11-22T10:28:38.439Z,73.66
2018-11-22T10:29:38.049Z,73.36
2018-11-22T10:30:38.032Z,73.39
2018-11-22T10:31:38.018Z,73.31
2018-11-22T10:32:38.093Z,73.03
2018-11-22T10:33:37.923Z,72.97
2018-11-22T10:34:38.022Z,73.16
2018-11-22T10:35:37.895Z,72.97
2018-11-22T10:36:38.040Z,72.93
2018-11-22T10:37:38.073Z,72.85
2018-11-22T10:38:38.021Z,72.92
2018-11-22T10:39:37.935Z,73.09
2018-11-22T10:40:38.077Z,73.21
2018-11-22T10:41:38.451Z,72.68
2018-11-22T10:42:38.217Z,72.8
2018-11-22T10:43:37.999Z,72.64
2018-11-22T10:44:37.986Z,72.48
2018-11-22T10:45:38.012Z,72.16
2018-11-22T10:46:37.899Z,72.09
2018-11-22T10:47:37.964Z,71.86
2018-11-22T10:48:37.932Z,71.69
2018-11-22T10:49:37.979Z,71.95
2018-11-22T10:50:38.014Z,72.06
2018-11-22T10:51:37.885Z,71.53
2018-11-22T10:52:37.928Z,71.55
2018-11-22T10:53:37.901Z,71.61
2018-11-22T10:54:38.056Z,70.98
2018-11-22T10:55:38.070Z,71.07
2018-11-22T10:56:37.868Z,70.97
2018-11-22T10:57:37.927Z,71.07
2018-11-22T10:58:37.885Z,70.87
2018-11-22T10:59:37.944Z,70.43
2018-11-22T11:00:37.924Z,70.52
2018-11-22T11:01:38.007Z,70.43
2018-11-22T11:02:37.951Z,70.43
2018-11-22T11:03:37.921Z,70.37
2018-11-22T11:04:37.916Z,70.39
2018-11-22T11:05:38.145Z,70.41
2018-11-22T11:06:37.924Z,70.66
2018-11-22T11:07:37.916Z,70.47
2018-11-22T11:08:37.955Z,70.85
2018-11-22T11:09:37.907Z,70.79
2018-11-22T11:10:37.949Z,70.76
2018-11-22T11:11:37.991Z,70.78
2018-11-22T11:12:37.952Z,70.52
2018-11-22T11:13:37.994Z,70.53
2018-11-22T11:14:37.839Z,70.95
2018-11-22T11:15:37.853Z,70.4
2018-11-22T11:16:38.033Z,70.08
2018-11-22T11:17:38.222Z,70.54
2018-11-22T11:18:37.947Z,69.87
2018-11-22T11:19:37.983Z,69.93
2018-11-22T11:20:38.020Z,69.49
2018-11-22T11:21:38.074Z,69.58
2018-11-22T11:22:37.919Z,69.7
2018-11-22T11:23:37.980Z,69.62
2018-11-22T11:24:38.524Z,68.97
2018-11-22T11:25:37.981Z,69.41
2018-11-22T11:26:38.080Z,69.31
2018-11-22T11:27:38.005Z,69.65
2018-11-22T11:28:37.952Z,69.1
2018-11-22T11:29:38.228Z,69
2018-11-22T11:30:38.936Z,69.64
2018-11-22T11:31:37.930Z,69.83
2018-11-22T11:32:38.175Z,70.02
2018-11-22T11:33:37.873Z,69.63
2018-11-22T11:34:38.204Z,69.86
2018-11-22T11:35:37.905Z,69.64
2018-11-22T11:36:37.937Z,69.26
2018-11-22T11:37:37.979Z,69.41
2018-11-22T11:38:37.806Z,69.36
2018-11-22T11:39:38.028Z,69.17
2018-11-22T11:40:37.940Z,69.38
2018-11-22T11:41:38.207Z,69.25
2018-11-22T11:42:38.012Z,69.19
2018-11-22T11:43:38.028Z,69.86
2018-11-22T11:44:38.171Z,69.95
2018-11-22T11:45:37.915Z,69.85
2018-11-22T11:46:38.087Z,69.88
2018-11-22T11:47:37.957Z,69.88
2018-11-22T11:48:38.113Z,69.8
2018-11-22T11:49:37.943Z,69.51
2018-11-22T11:50:37.948Z,69.46
2018-11-22T11:51:37.974Z,69.42
2018-11-22T11:52:38.309Z,69.66
2018-11-22T11:53:41.223Z,69.77
2018-11-22T11:54:38.059Z,69.81
2018-11-22T11:55:37.936Z,69.65
2018-11-22T11:56:37.817Z,69.69
2018-11-22T11:57:37.965Z,69.68
2018-11-22T11:58:37.935Z,69.96
2018-11-22T11:59:38.131Z,69.56
2018-11-22T12:00:38.037Z,69.77
2018-11-22T12:01:37.880Z,69.68
2018-11-22T12:02:37.888Z,69.95
2018-11-22T12:03:38.009Z,70.15
2018-11-22T12:04:38.143Z,70.19
2018-11-22T12:05:38.010Z,70.28
2018-11-22T12:06:37.887Z,70.23
2018-11-22T12:07:38.049Z,70.26
2018-11-22T12:08:37.967Z,70.49
2018-11-22T12:09:37.901Z,70.58
2018-11-22T12:10:37.847Z,70.52
2018-11-22T12:11:38.142Z,70.1
2018-11-22T12:12:37.825Z,69.98
2018-11-22T12:13:38.448Z,70.28
2018-11-22T12:14:37.896Z,69.79
2018-11-22T12:15:37.904Z,69.48
2018-11-22T12:16:37.783Z,69.4
2018-11-22T12:17:37.922Z,69.45
2018-11-22T12:18:37.769Z,69.22
2018-11-22T12:19:37.754Z,69.66
2018-11-22T12:20:37.749Z,69.55
2018-11-22T12:21:37.874Z,69.16
2018-11-22T12:22:37.768Z,69.25
2018-11-22T12:23:37.795Z,69.06
2018-11-22T12:24:37.781Z,69.36
2018-11-22T12:25:37.763Z,69.07
2018-11-22T12:26:37.746Z,68.71
2018-11-22T12:27:38.062Z,69.01
2018-11-22T12:28:37.759Z,68.97
2018-11-22T12:29:37.762Z,69.02
2018-11-22T12:30:37.790Z,68.5
2018-11-22T12:31:37.778Z,68.79
2018-11-22T12:32:37.959Z,68.53
2018-11-22T12:33:37.881Z,68.49
2018-11-22T12:34:37.739Z,68.6
2018-11-22T12:35:37.883Z,68.52
2018-11-22T12:36:37.906Z,68.87
2018-11-22T12:37:43.102Z,68.34
2018-11-22T12:38:38.093Z,68.45
2018-11-22T12:39:37.916Z,68.52
2018-11-22T12:40:37.868Z,68.47
2018-11-22T12:41:37.805Z,68.72
2018-11-22T12:42:37.892Z,68.68
2018-11-22T12:43:37.803Z,68.32
2018-11-22T12:44:37.770Z,68.21
2018-11-22T12:45:37.913Z,68.3
2018-11-22T12:46:38.033Z,68.45
2018-11-22T12:47:38.020Z,68.59
2018-11-22T12:48:37.746Z,68.6
2018-11-22T12:49:37.760Z,68.83
2018-11-22T12:50:37.750Z,68.64
2018-11-22T12:51:37.832Z,68.68
2018-11-22T12:52:37.823Z,68.77
2018-11-22T12:53:38.229Z,68.45
2018-11-22T12:54:38.160Z,68.72
2018-11-22T12:55:37.716Z,68.62